createdAt,value
2019-01-13T00:01:07.231Z,96461.92
2019-01-13T00:03:36.332Z,96464.17
2019-01-13T00:06:05.543Z,96461.52
2019-01-13T00:08:34.642Z,96459.71
2019-01-13T00:11:03.727Z,96454.40
2019-01-13T00:13:32.825Z,96456.20
2019-01-13T00:16:01.901Z,96456.94
2019-01-13T00:18:31.001Z,96453.42
2019-01-13T00:21:00.085Z,96465.37
2019-01-13T00:23:29.186Z,96465.67
2019-01-13T00:25:58.265Z,96463.80
2019-01-13T00:28:27.358Z,96462.42
2019-01-13T00:30:56.455Z,96467.27
2019-01-13T00:33:25.565Z,96465.94
2019-01-13T00:35:54.660Z,96477.16
2019-01-13T00:38:23.745Z,96474.97
2019-01-13T00:40:52.833Z,96470.05
2019-01-13T00:43:21.924Z,96465.20
2019-01-13T00:45:51.017Z,96471.23
2019-01-13T00:48:20.094Z,96467.98
2019-01-13T00:50:49.195Z,96463.87
2019-01-13T00:53:18.279Z,96465.55
2019-01-13T00:55:47.378Z,96463.89
2019-01-13T00:58:16.486Z,96455.03
2019-01-13T01:00:45.581Z,96464.75
2019-01-13T01:03:14.663Z,96459.25
2019-01-13T01:05:43.774Z,96459.43
2019-01-13T01:08:13.836Z,96465.37
2019-01-13T01:10:42.953Z,96463.48
2019-01-13T01:13:12.100Z,96465.89
2019-01-13T01:15:41.201Z,96474.23
2019-01-13T01:18:10.280Z,96473.20
2019-01-13T01:20:39.384Z,96477.23
2019-01-13T01:23:08.457Z,96476.08
2019-01-13T01:25:37.579Z,96475.20
2019-01-13T01:28:06.651Z,96477.45
2019-01-13T01:30:35.736Z,96481.69
2019-01-13T01:33:04.861Z,96486.64
2019-01-13T01:35:33.955Z,96482.27
2019-01-13T01:38:03.034Z,96486.40
2019-01-13T01:40:32.128Z,96479.31
2019-01-13T01:43:01.216Z,96481.86
2019-01-13T01:45:30.315Z,96473.00
2019-01-13T01:47:59.399Z,96469.42
2019-01-13T01:50:28.503Z,96466.88
2019-01-13T01:52:57.595Z,96465.55
2019-01-13T01:55:26.674Z,96462.08
2019-01-13T01:57:55.785Z,96463.52
2019-01-13T02:00:25.871Z,96458.80
2019-01-13T02:02:54.984Z,96459.83
2019-01-13T02:05:24.072Z,96456.44
2019-01-13T02:07:53.241Z,96446.25
2019-01-13T02:10:23.892Z,96441.75
2019-01-13T02:12:53.111Z,96449.50
2019-01-13T02:15:24.610Z,96447.07
2019-01-13T02:17:53.926Z,96450.60
2019-01-13T02:20:23.628Z,96444.30
2019-01-13T02:22:52.740Z,96450.20
2019-01-13T02:25:26.903Z,96451.83
2019-01-13T02:27:56.107Z,96451.64
2019-01-13T02:30:26.456Z,96447.70
2019-01-13T02:32:55.995Z,96442.91
2019-01-13T02:35:25.238Z,96437.99
2019-01-13T02:37:54.383Z,96433.34
2019-01-13T02:40:23.646Z,96432.86
2019-01-13T02:42:53.592Z,96428.02
2019-01-13T02:45:27.837Z,96433.89
2019-01-13T02:47:56.958Z,96429.16
2019-01-13T02:50:26.036Z,96441.13
2019-01-13T02:52:55.433Z,96431.83
2019-01-13T02:55:24.520Z,96432.34
2019-01-13T02:57:53.636Z,96425.70
2019-01-13T03:00:26.716Z,96420.42
2019-01-13T03:02:55.817Z,96412.19
2019-01-13T03:05:24.934Z,96395.47
2019-01-13T03:07:54.027Z,96392.47
2019-01-13T03:10:24.978Z,96394.61
2019-01-13T03:12:54.348Z,96397.31
2019-01-13T03:15:26.859Z,96388.78
2019-01-13T03:17:56.094Z,96393.58
2019-01-13T03:20:25.197Z,96387.67
2019-01-13T03:22:54.284Z,96374.98
2019-01-13T03:25:24.290Z,96371.44
2019-01-13T03:27:53.417Z,96369.81
2019-01-13T03:30:23.889Z,96374.61
2019-01-13T03:32:52.999Z,96378.67
2019-01-13T03:35:22.104Z,96374.39
2019-01-13T03:37:51.191Z,96369.92
2019-01-13T03:40:22.326Z,96371.73
2019-01-13T03:42:51.550Z,96372.31
2019-01-13T03:45:20.737Z,96375.23
2019-01-13T03:47:49.808Z,96372.87
2019-01-13T03:50:20.596Z,96383.61
2019-01-13T03:52:53.309Z,96379.00
2019-01-13T03:55:22.207Z,96380.66
2019-01-13T03:57:51.292Z,96368.95
2019-01-13T04:00:22.606Z,96374.27
2019-01-13T04:02:51.721Z,96358.62
2019-01-13T04:05:20.929Z,96373.23
2019-01-13T04:07:49.999Z,96371.36
2019-01-13T04:10:19.432Z,96368.44
2019-01-13T04:12:48.626Z,96360.17
2019-01-13T04:16:01.110Z,96356.73
2019-01-13T04:18:30.300Z,96357.55
2019-01-13T04:20:59.654Z,96347.44
2019-01-13T04:23:28.750Z,96349.05
2019-01-13T04:25:57.858Z,96343.70
2019-01-13T04:28:26.945Z,96338.68
2019-01-13T04:30:56.063Z,96337.87
2019-01-13T04:33:25.161Z,96338.91
2019-01-13T04:35:54.272Z,96331.48
2019-01-13T04:38:23.378Z,96319.27
2019-01-13T04:40:52.494Z,96309.89
2019-01-13T04:43:21.576Z,96310.99
2019-01-13T04:45:50.682Z,96309.44
2019-01-13T04:48:19.773Z,96308.89
2019-01-13T04:50:48.900Z,96298.00
2019-01-13T04:53:17.996Z,96291.06
2019-01-13T04:55:47.109Z,96296.48
2019-01-13T04:58:16.305Z,96295.05
2019-01-13T05:00:45.420Z,96280.43
2019-01-13T05:03:14.514Z,96276.47
2019-01-13T05:05:43.638Z,96271.88
2019-01-13T05:08:12.728Z,96261.83
2019-01-13T05:10:41.850Z,96247.66
2019-01-13T05:13:10.946Z,96250.41
2019-01-13T05:15:40.041Z,96252.09
2019-01-13T05:18:09.173Z,96250.70
2019-01-13T05:20:40.201Z,96250.25
2019-01-13T05:23:09.108Z,96246.55
2019-01-13T05:25:38.188Z,96245.48
2019-01-13T05:28:07.303Z,96236.47
2019-01-13T05:30:36.385Z,96222.66
2019-01-13T05:33:05.509Z,96225.84
2019-01-13T05:35:34.598Z,96222.98
2019-01-13T05:38:03.709Z,96226.42
2019-01-13T05:40:32.799Z,96222.95
2019-01-13T05:43:01.903Z,96217.95
2019-01-13T05:45:30.963Z,96226.73
2019-01-13T05:48:00.076Z,96203.62
2019-01-13T05:50:29.159Z,96195.35
2019-01-13T05:52:58.268Z,96178.08
2019-01-13T05:55:27.416Z,96181.31
2019-01-13T05:57:56.519Z,96172.81
2019-01-13T06:00:27.537Z,96169.86
2019-01-13T06:02:56.646Z,96145.80
2019-01-13T06:05:25.737Z,96150.03
2019-01-13T06:07:54.840Z,96157.27
2019-01-13T06:10:23.933Z,96153.80
2019-01-13T06:12:53.030Z,96149.58
2019-01-13T06:15:23.777Z,96144.78
2019-01-13T06:17:52.871Z,96139.98
2019-01-13T06:20:23.717Z,96152.52
2019-01-13T06:22:52.839Z,96137.41
2019-01-13T06:25:21.943Z,96138.44
2019-01-13T06:27:51.047Z,96128.61
2019-01-13T06:30:21.992Z,96131.80
2019-01-13T06:32:51.526Z,96127.34
2019-01-13T06:35:20.644Z,96135.78
2019-01-13T06:37:49.835Z,96117.74
2019-01-13T06:40:20.638Z,96111.62
2019-01-13T06:42:49.739Z,96105.49
2019-01-13T06:45:26.604Z,96094.62
2019-01-13T06:47:55.709Z,96087.19
2019-01-13T06:50:25.991Z,96096.26
2019-01-13T06:52:55.095Z,96101.05
2019-01-13T06:55:24.171Z,96105.91
2019-01-13T06:57:53.275Z,96107.27
2019-01-13T07:00:26.738Z,96118.94
2019-01-13T07:02:56.310Z,96114.20
2019-01-13T07:05:25.391Z,96116.86
2019-01-13T07:07:54.512Z,96121.31
2019-01-13T07:10:23.647Z,96129.30
2019-01-13T07:12:52.757Z,96131.95
2019-01-13T07:15:22.071Z,96140.22
2019-01-13T07:17:51.152Z,96134.66
2019-01-13T07:20:21.311Z,96138.68
2019-01-13T07:22:50.601Z,96140.80
2019-01-13T07:25:19.722Z,96140.80
2019-01-13T07:27:48.819Z,96129.87
2019-01-13T07:30:22.971Z,96127.50
2019-01-13T07:32:52.161Z,96125.38
2019-01-13T07:35:21.212Z,96121.16
2019-01-13T07:37:50.306Z,96121.68
2019-01-13T07:40:21.037Z,96127.58
2019-01-13T07:42:50.145Z,96131.27
2019-01-13T07:45:23.927Z,96134.52
2019-01-13T07:47:53.006Z,96130.23
2019-01-13T07:50:22.217Z,96140.38
2019-01-13T07:52:51.308Z,96127.05
2019-01-13T07:55:21.846Z,96125.14
2019-01-13T07:57:50.950Z,96131.85
2019-01-13T08:00:22.123Z,96123.58
2019-01-13T08:02:51.220Z,96119.88
2019-01-13T08:05:20.320Z,96117.98
2019-01-13T08:07:49.516Z,96117.50
2019-01-13T08:10:18.622Z,96120.92
2019-01-13T08:12:47.705Z,96111.91
2019-01-13T08:15:18.403Z,96114.84
2019-01-13T08:17:47.494Z,96113.84
2019-01-13T08:20:20.048Z,96110.38
2019-01-13T08:22:49.135Z,96108.81
2019-01-13T08:25:18.242Z,96104.06
2019-01-13T08:27:47.315Z,96102.97
2019-01-13T08:30:17.871Z,96097.95
2019-01-13T08:32:46.974Z,96097.15
2019-01-13T08:35:16.086Z,96085.23
2019-01-13T08:37:45.159Z,96091.36
2019-01-13T08:40:16.547Z,96083.68
2019-01-13T08:42:45.631Z,96093.56
2019-01-13T08:45:15.009Z,96087.45
2019-01-13T08:47:44.102Z,96077.38
2019-01-13T08:50:18.589Z,96072.58
2019-01-13T08:52:47.999Z,96060.37
2019-01-13T08:55:18.092Z,96053.67
2019-01-13T08:57:47.282Z,96058.28
2019-01-13T09:00:27.306Z,96041.46
2019-01-13T09:02:56.401Z,96041.23
2019-01-13T09:05:25.771Z,96031.18
2019-01-13T09:07:54.856Z,96033.84
2019-01-13T09:10:23.966Z,96031.51
2019-01-13T09:12:56.985Z,96021.91
2019-01-13T09:15:24.550Z,96023.02
2019-01-13T09:17:53.640Z,96016.70
2019-01-13T09:20:24.896Z,96016.23
2019-01-13T09:22:53.993Z,96013.88
2019-01-13T09:25:23.234Z,96013.39
2019-01-13T09:27:52.680Z,96000.03
2019-01-13T09:30:23.806Z,96003.17
2019-01-13T09:32:52.969Z,96006.40
2019-01-13T09:35:22.080Z,96009.63
2019-01-13T09:37:51.287Z,96009.92
2019-01-13T09:40:23.479Z,96000.61
2019-01-13T09:42:52.701Z,95996.38
2019-01-13T09:45:22.472Z,96003.09
2019-01-13T09:47:51.580Z,95996.72
2019-01-13T09:50:21.283Z,95995.23
2019-01-13T09:52:50.382Z,95996.91
2019-01-13T09:55:20.322Z,95983.83
2019-01-13T09:57:49.431Z,95992.95
2019-01-13T10:00:27.393Z,95991.87
2019-01-13T10:02:56.511Z,95983.63
2019-01-13T10:05:25.594Z,95981.82
2019-01-13T10:07:54.701Z,95982.92
2019-01-13T10:10:23.787Z,95976.26
2019-01-13T10:12:52.998Z,95972.02
2019-01-13T10:15:22.625Z,95965.60
2019-01-13T10:17:52.629Z,95958.94
2019-01-13T10:20:21.719Z,95948.36
2019-01-13T10:22:50.835Z,95941.26
2019-01-13T10:25:19.920Z,95932.17
2019-01-13T10:27:49.023Z,95923.89
2019-01-13T10:30:20.660Z,95920.95
2019-01-13T10:32:54.585Z,95903.88
2019-01-13T10:35:20.589Z,95898.83
2019-01-13T10:37:51.446Z,95880.98
2019-01-13T10:40:21.695Z,95890.87
2019-01-13T10:42:50.903Z,95895.95
2019-01-13T10:45:19.994Z,95889.30
2019-01-13T10:47:49.100Z,95880.55
2019-01-13T10:50:23.242Z,95898.38
2019-01-13T10:52:53.044Z,95891.43
2019-01-13T10:55:22.256Z,95873.34
2019-01-13T10:57:51.367Z,95869.86
2019-01-13T11:00:22.918Z,95875.16
2019-01-13T11:02:52.035Z,95884.77
2019-01-13T11:05:21.117Z,95888.45
2019-01-13T11:07:51.823Z,95898.30
2019-01-13T11:10:20.899Z,95881.30
2019-01-13T11:12:50.004Z,95876.46
2019-01-13T11:15:21.894Z,95870.85
2019-01-13T11:17:50.549Z,95866.08
2019-01-13T11:20:22.044Z,95851.39
2019-01-13T11:22:51.138Z,95846.91
2019-01-13T11:25:20.359Z,95849.84
2019-01-13T11:27:49.486Z,95845.33
2019-01-13T11:30:20.254Z,95841.60
2019-01-13T11:32:49.374Z,95843.25
2019-01-13T11:35:18.449Z,95830.72
2019-01-13T11:37:48.110Z,95817.70
2019-01-13T11:40:21.958Z,95824.86
2019-01-13T11:42:51.035Z,95807.54
2019-01-13T11:45:20.151Z,95786.52
2019-01-13T11:47:49.235Z,95782.80
2019-01-13T11:50:19.914Z,95782.80
2019-01-13T11:52:49.046Z,95775.62
2019-01-13T11:55:18.544Z,95767.38
2019-01-13T11:57:47.826Z,95767.09
2019-01-13T12:00:19.287Z,95752.98
2019-01-13T12:02:48.371Z,95747.65
2019-01-13T12:05:17.621Z,95749.79
2019-01-13T12:07:47.418Z,95762.08
2019-01-13T12:10:18.093Z,95759.66
2019-01-13T12:12:47.501Z,95748.73
2019-01-13T12:15:17.358Z,95755.66
2019-01-13T12:17:46.558Z,95761.53
2019-01-13T12:20:17.524Z,95741.23
2019-01-13T12:22:46.742Z,95750.58
2019-01-13T12:25:17.467Z,95743.40
2019-01-13T12:27:46.926Z,95734.34
2019-01-13T12:30:22.121Z,95727.69
2019-01-13T12:32:51.344Z,95748.48
2019-01-13T12:35:21.903Z,95756.74
2019-01-13T12:37:51.146Z,95764.48
2019-01-13T12:40:22.355Z,95767.39
2019-01-13T12:42:51.517Z,95751.39
2019-01-13T12:45:21.806Z,95753.00
2019-01-13T12:47:51.205Z,95750.86
2019-01-13T12:50:25.024Z,95740.73
2019-01-13T12:52:54.115Z,95743.14
2019-01-13T12:55:23.237Z,95751.94
2019-01-13T12:57:52.316Z,95755.94
2019-01-13T13:00:24.112Z,95750.09
2019-01-13T13:02:53.372Z,95742.08
2019-01-13T13:05:22.494Z,95739.40
2019-01-13T13:07:51.575Z,95734.84
2019-01-13T13:10:35.502Z,95739.91
2019-01-13T13:13:05.027Z,95739.66
2019-01-13T13:15:34.140Z,95742.57
2019-01-13T13:18:03.229Z,95726.32
2019-01-13T13:20:32.331Z,95717.00
2019-01-13T13:23:02.039Z,95707.12
2019-01-13T13:25:31.983Z,95706.07
2019-01-13T13:28:01.235Z,95702.34
2019-01-13T13:30:30.366Z,95696.47
2019-01-13T13:32:59.478Z,95693.03
2019-01-13T13:35:28.615Z,95684.75
2019-01-13T13:37:57.859Z,95684.73
2019-01-13T13:40:26.991Z,95678.87
2019-01-13T13:42:56.093Z,95662.36
2019-01-13T13:45:25.493Z,95668.73
2019-01-13T13:47:54.687Z,95650.34
2019-01-13T13:50:24.979Z,95649.55
2019-01-13T13:52:54.294Z,95651.94
2019-01-13T13:55:23.428Z,95651.16
2019-01-13T13:57:52.530Z,95648.76
2019-01-13T14:00:23.819Z,95659.70
2019-01-13T14:02:53.070Z,95652.76
2019-01-13T14:05:22.675Z,95644.77
2019-01-13T14:07:51.776Z,95645.29
2019-01-13T14:10:23.484Z,95640.22
2019-01-13T14:12:52.594Z,95648.76
2019-01-13T14:15:21.680Z,95666.36
2019-01-13T14:17:50.781Z,95656.22
2019-01-13T14:20:19.990Z,95663.94
2019-01-13T14:22:49.118Z,95670.09
2019-01-13T14:25:18.192Z,95667.96
2019-01-13T14:27:47.297Z,95663.70
2019-01-13T14:30:24.061Z,95651.16
2019-01-13T14:32:53.210Z,95649.84
2019-01-13T14:35:22.623Z,95641.84
2019-01-13T14:37:51.831Z,95636.77
2019-01-13T14:40:22.616Z,95628.77
2019-01-13T14:42:51.839Z,95623.16
2019-01-13T14:45:22.999Z,95627.95
2019-01-13T14:47:52.108Z,95622.64
2019-01-13T14:50:23.261Z,95621.85
2019-01-13T14:52:53.092Z,95605.03
2019-01-13T14:55:22.171Z,95604.23
2019-01-13T14:57:51.465Z,95605.30
2019-01-13T15:00:25.686Z,95597.58
2019-01-13T15:02:54.894Z,95600.50
2019-01-13T15:05:23.985Z,95599.71
2019-01-13T15:07:53.127Z,95605.30
2019-01-13T15:10:22.875Z,95608.23
2019-01-13T15:12:51.976Z,95606.38
2019-01-13T15:15:21.066Z,95606.11
2019-01-13T15:17:50.166Z,95589.83
2019-01-13T15:20:41.007Z,95586.65
2019-01-13T15:23:10.213Z,95588.50
2019-01-13T15:25:39.308Z,95593.58
2019-01-13T15:28:08.416Z,95610.66
2019-01-13T15:30:38.601Z,95601.31
2019-01-13T15:33:09.070Z,95601.83
2019-01-13T15:35:38.291Z,95593.03
2019-01-13T15:38:08.356Z,95582.38
2019-01-13T15:40:37.443Z,95578.09
2019-01-13T15:43:06.768Z,95583.42
2019-01-13T15:45:35.852Z,95574.63
2019-01-13T15:48:05.632Z,95566.11
2019-01-13T15:50:34.713Z,95553.31
2019-01-13T15:53:04.006Z,95555.43
2019-01-13T15:55:33.097Z,95575.98
2019-01-13T15:58:02.200Z,95563.70
2019-01-13T16:00:35.784Z,95555.69
2019-01-13T16:03:06.357Z,95549.81
2019-01-13T16:05:35.454Z,95553.81
2019-01-13T16:08:04.538Z,95558.88
2019-01-13T16:10:33.640Z,95558.36
2019-01-13T16:13:02.731Z,95556.48
2019-01-13T16:15:34.474Z,95552.77
2019-01-13T16:18:02.656Z,95551.14
2019-01-13T16:20:49.606Z,95539.14
2019-01-13T16:23:18.686Z,95543.14
2019-01-13T16:25:47.792Z,95539.95
2019-01-13T16:28:16.870Z,95551.69
2019-01-13T16:30:45.974Z,95534.09
2019-01-13T16:33:15.053Z,95547.95
2019-01-13T16:35:44.174Z,95543.16
2019-01-13T16:38:13.258Z,95556.47
2019-01-13T16:40:42.363Z,95555.40
2019-01-13T16:43:11.455Z,95555.41
2019-01-13T16:45:40.555Z,95554.88
2019-01-13T16:48:09.640Z,95555.13
2019-01-13T16:50:38.751Z,95534.59
2019-01-13T16:53:07.830Z,95528.22
2019-01-13T16:55:36.931Z,95520.19
2019-01-13T16:58:06.135Z,95524.45
2019-01-13T17:00:35.245Z,95524.72
2019-01-13T17:03:04.471Z,95523.65
2019-01-13T17:05:33.588Z,95527.92
2019-01-13T17:08:02.667Z,95517.80
2019-01-13T17:10:31.763Z,95516.71
2019-01-13T17:13:00.847Z,95516.98
2019-01-13T17:15:37.141Z,95523.65
2019-01-13T17:18:07.593Z,95528.20
2019-01-13T17:20:36.811Z,95522.84
2019-01-13T17:23:05.896Z,95527.92
2019-01-13T17:25:35.132Z,95522.02
2019-01-13T17:28:04.538Z,95507.61
2019-01-13T17:30:35.299Z,95504.42
2019-01-13T17:33:05.102Z,95505.52
2019-01-13T17:35:34.238Z,95503.91
2019-01-13T17:38:03.443Z,95509.76
2019-01-13T17:40:32.770Z,95510.57
2019-01-13T17:43:01.854Z,95501.50
2019-01-13T17:45:32.484Z,95495.09
2019-01-13T17:48:01.620Z,95502.06
2019-01-13T17:50:30.718Z,95494.33
2019-01-13T17:52:59.814Z,95490.05
2019-01-13T17:55:30.299Z,95488.48
2019-01-13T17:57:59.773Z,95490.63
2019-01-13T18:00:52.028Z,95491.95
2019-01-13T18:03:31.361Z,95495.95
2019-01-13T18:06:00.467Z,95497.01
2019-01-13T18:08:29.581Z,95498.35
2019-01-13T18:10:58.665Z,95503.41
2019-01-13T18:13:27.771Z,95508.74
2019-01-13T18:15:56.918Z,95503.69
2019-01-13T18:18:26.015Z,95506.63
2019-01-13T18:20:55.100Z,95497.55
2019-01-13T18:23:24.202Z,95493.54
2019-01-13T18:25:53.290Z,95493.30
2019-01-13T18:28:23.892Z,95505.02
2019-01-13T18:30:53.067Z,95504.22
2019-01-13T18:33:22.234Z,95478.38
2019-01-13T18:35:51.298Z,95480.75
2019-01-13T18:38:20.399Z,95477.05
2019-01-13T18:40:49.481Z,95475.69
2019-01-13T18:43:18.596Z,95463.41
2019-01-13T18:45:47.759Z,95461.01
2019-01-13T18:48:16.858Z,95471.15
2019-01-13T18:50:45.938Z,95470.64
2019-01-13T18:53:15.948Z,95478.63
2019-01-13T18:55:45.028Z,95474.09
2019-01-13T18:58:14.129Z,95454.11
2019-01-13T19:00:43.202Z,95461.05
2019-01-13T19:03:12.305Z,95454.91
2019-01-13T19:05:41.382Z,95465.56
2019-01-13T19:08:10.486Z,95463.98
2019-01-13T19:10:52.357Z,95473.58
2019-01-13T19:13:42.087Z,95477.85
2019-01-13T19:16:13.890Z,95484.78
2019-01-13T19:18:43.007Z,95487.96
2019-01-13T19:21:12.092Z,95488.50
2019-01-13T19:23:41.207Z,95475.17
2019-01-13T19:26:10.287Z,95480.27
2019-01-13T19:28:39.386Z,95475.45
2019-01-13T19:31:08.473Z,95457.86
2019-01-13T19:33:37.943Z,95460.80
2019-01-13T19:36:09.668Z,95465.86
2019-01-13T19:38:39.847Z,95481.61
2019-01-13T19:41:09.236Z,95477.32
2019-01-13T19:43:39.021Z,95473.87
2019-01-13T19:46:08.988Z,95480.53
2019-01-13T19:48:38.917Z,95463.22
2019-01-13T19:51:08.670Z,95471.47
2019-01-13T19:53:38.674Z,95457.61
2019-01-13T19:56:08.119Z,95436.30
2019-01-13T19:58:37.817Z,95463.73
2019-01-13T20:01:07.513Z,95466.67
2019-01-13T20:03:36.622Z,95449.62
2019-01-13T20:06:06.011Z,95457.07
2019-01-13T20:08:35.687Z,95445.89
2019-01-13T20:11:05.669Z,95449.07
2019-01-13T20:13:35.713Z,95447.50
2019-01-13T20:16:05.646Z,95448.28
2019-01-13T20:18:34.744Z,95454.95
2019-01-13T20:21:03.818Z,95466.67
2019-01-13T20:23:34.064Z,95478.14
2019-01-13T20:26:04.530Z,95478.39
2019-01-13T20:28:34.472Z,95481.59
2019-01-13T20:31:04.653Z,95481.59
2019-01-13T20:33:34.806Z,95485.05
2019-01-13T20:36:05.381Z,95493.31
2019-01-13T20:38:35.302Z,95503.98
2019-01-13T20:41:05.384Z,95525.83
2019-01-13T20:43:35.335Z,95525.56
2019-01-13T20:46:05.226Z,95533.23
2019-01-13T20:48:36.198Z,95526.56
2019-01-13T20:51:05.598Z,95521.69
2019-01-13T20:53:34.920Z,95519.53
2019-01-13T20:56:04.162Z,95504.87
2019-01-13T20:58:34.550Z,95510.69
2019-01-13T21:01:04.584Z,95519.20
2019-01-13T21:03:33.659Z,95526.89
2019-01-13T21:06:03.266Z,95527.45
2019-01-13T21:08:32.346Z,95530.09
2019-01-13T21:11:01.709Z,95513.52
2019-01-13T21:13:31.871Z,95527.83
2019-01-13T21:16:02.322Z,95532.84
2019-01-13T21:18:31.403Z,95529.88
2019-01-13T21:21:00.504Z,95552.73
2019-01-13T21:23:29.580Z,95575.47
2019-01-13T21:25:58.679Z,95578.91
2019-01-13T21:28:27.850Z,95594.53
2019-01-13T21:30:56.962Z,95594.92
2019-01-13T21:33:26.081Z,95583.13
2019-01-13T21:35:55.214Z,95582.23
2019-01-13T21:38:24.325Z,95583.23
2019-01-13T21:40:53.450Z,95581.44
2019-01-13T21:43:22.535Z,95591.97
2019-01-13T21:45:51.626Z,95593.91
2019-01-13T21:48:20.739Z,95601.53
2019-01-13T21:50:49.824Z,95601.53
2019-01-13T21:53:18.945Z,95595.23
2019-01-13T21:55:48.026Z,95592.62
2019-01-13T21:58:17.140Z,95581.63
2019-01-13T22:00:46.225Z,95579.81
2019-01-13T22:03:15.332Z,95575.98
2019-01-13T22:05:44.418Z,95566.44
2019-01-13T22:08:13.522Z,95571.84
2019-01-13T22:10:42.605Z,95572.08
2019-01-13T22:13:11.703Z,95592.64
2019-01-13T22:15:40.792Z,95603.94
2019-01-13T22:18:09.904Z,95605.32
2019-01-13T22:20:38.995Z,95597.55
2019-01-13T22:23:08.094Z,95605.08
2019-01-13T22:25:37.178Z,95613.23
2019-01-13T22:28:06.292Z,95604.08
2019-01-13T22:30:35.371Z,95613.48
2019-01-13T22:33:04.578Z,95611.45
2019-01-13T22:35:33.683Z,95608.84
2019-01-13T22:38:02.778Z,95621.84
2019-01-13T22:40:31.849Z,95616.63
2019-01-13T22:43:00.951Z,95627.58
2019-01-13T22:45:30.048Z,95611.77
2019-01-13T22:47:59.148Z,95624.86
2019-01-13T22:50:28.222Z,95631.51
2019-01-13T22:52:57.319Z,95629.17
2019-01-13T22:55:26.410Z,95619.05
2019-01-13T22:57:55.511Z,95631.34
2019-01-13T23:01:06.611Z,95628.16
2019-01-13T23:03:35.985Z,95641.45
2019-01-13T23:06:05.372Z,95628.89
2019-01-13T23:08:34.474Z,95626.23
2019-01-13T23:11:03.546Z,95627.27
2019-01-13T23:13:32.641Z,95618.48
2019-01-13T23:16:01.713Z,95633.07
2019-01-13T23:18:30.814Z,95637.62
2019-01-13T23:20:59.887Z,95625.70
2019-01-13T23:23:28.992Z,95625.14
2019-01-13T23:25:58.073Z,95635.81
2019-01-13T23:28:27.169Z,95641.70
2019-01-13T23:30:56.246Z,95647.81
2019-01-13T23:33:25.346Z,95640.08
2019-01-13T23:35:54.448Z,95640.08
2019-01-13T23:38:23.567Z,95636.33
2019-01-13T23:40:52.628Z,95639.56
2019-01-13T23:43:21.821Z,95631.66
2019-01-13T23:45:50.907Z,95633.95
2019-01-13T23:48:20.024Z,95640.05
2019-01-13T23:50:49.118Z,95631.27
2019-01-13T23:53:18.197Z,95636.66
2019-01-13T23:55:47.293Z,95641.33
2019-01-13T23:58:16.361Z,95654.09
